Impacts METAR Board
IDs:

KORD - Chicago/O'Hare Intl, IL, US

Updated at: 0800 UTC 25 May 2020
Potential Impact None Slight Moderate High
Time 24/20Z 24/21Z 24/22Z 24/23Z 25/00Z 25/01Z 25/02Z 25/03Z 25/04Z 25/05Z 25/06Z 25/07Z 25/08Z
Temp89 88 90 88 85 84 81 80 78 76 74 72 71
Dewpt65 64 60 59 60 64 63 64 65 64 65 65 65
Altim29.91 29.89 29.88 29.85 29.85 29.85 29.87 29.91 29.90 29.89 29.91 29.92 29.90
VIS10 10 10 10 10 10 10 10 10 10 10 10 10
CIG250 250 250 250 250 250 250 250 250 250 250 250 250
CoverBKNBKNBKNBKNBKNBKNOVCOVCBKNBKNBKNBKNBKN
FltCatVFRVFRVFRVFRVFRVFRVFRVFRVFRVFRVFRVFRVFR
WX--------------------------
WDir2700250120120140140160180190170190180
WSpd5 0 4 9 8 8 8 7 7 6 6 10 9
WGst-- -- -- -- -- -- -- -- -- -- -- 15 --
Raw hourly METARs
KORD 241951Z 27005KT 10SM FEW045 BKN250 32/18 A2991 RMK AO2 SLP121 T03170183 $
KORD 242051Z 00000KT 10SM SCT055 BKN250 31/18 A2989 RMK AO2 SLP116 T03110178 58011 $
KORD 242151Z 25004KT 10SM SCT055 BKN250 32/15 A2988 RMK AO2 SLP111 T03220156 $
KORD 242251Z 12009KT 10SM FEW060 BKN250 31/15 A2985 RMK AO2 SLP102 T03110150 $
KORD 242351Z 12008KT 10SM FEW060 BKN250 30/16 A2985 RMK AO2 SLP105 T02940156 10322 20289 55012 $
KORD 250051Z 14008KT 10SM FEW060 BKN250 29/18 A2985 RMK AO2 SLP104 T02890178 $
KORD 250151Z 14008KT 10SM FEW060 OVC250 27/17 A2987 RMK AO2 SLP109 T02720172 $
KORD 250251Z 16007KT 10SM SCT060 OVC250 26/18 A2991 RMK AO2 SLP123 T02670178 53019 $
KORD 250351Z 18007KT 10SM FEW060 BKN250 26/18 A2990 RMK AO2 SLP119 T02560183 $
KORD 250451Z 19006KT 10SM BKN250 24/18 A2989 RMK AO2 SLP117 T02440178 $
KORD 250551Z 17006KT 10SM BKN250 23/18 A2991 RMK AO2 SLP121 T02330183 10294 20233 403220178 55002 $
KORD 250651Z 19010G15KT 10SM BKN250 22/19 A2992 RMK AO2 SLP125 T02220183 $
KORD 250751Z 18009KT 10SM BKN250 22/18 A2990 RMK AO2 SLP120 T02170183 $



Page loaded:  08:47 UTC  |   01:47 AM Pacific  |   02:47 AM Mountain  |   03:47 AM Central  |   04:47 AM Eastern

 

ADVISORIES

FORECASTS

FORECASTS

OBSERVATIONS

USER TOOLS

ABOUT US